sensor_id;sensor_type;location;lat;lon;timestamp;pressure;altitude;pressure_sealevel;temperature;humidity
37710;BME280;60223;34.854;-92.408;2023-03-20T00:01:48;101903.95;;;18.41;27.79
37710;BME280;60223;34.854;-92.408;2023-03-20T00:04:12;101902.65;;;18.31;27.71
37710;BME280;60223;34.854;-92.408;2023-03-20T00:06:39;101897.10;;;17.97;27.76
37710;BME280;60223;34.854;-92.408;2023-03-20T00:09:04;101898.34;;;18.40;27.63
37710;BME280;60223;34.854;-92.408;2023-03-20T00:11:31;101897.98;;;18.45;27.63
37710;BME280;60223;34.854;-92.408;2023-03-20T00:13:57;101896.77;;;18.35;27.88
37710;BME280;60223;34.854;-92.408;2023-03-20T00:16:24;101894.03;;;18.16;27.86
37710;BME280;60223;34.854;-92.408;2023-03-20T00:18:48;101893.00;;;18.09;28.04
37710;BME280;60223;34.854;-92.408;2023-03-20T00:21:19;101897.75;;;18.36;28.37
37710;BME280;60223;34.854;-92.408;2023-03-20T00:23:39;101898.26;;;18.59;28.01
37710;BME280;60223;34.854;-92.408;2023-03-20T00:26:07;101900.16;;;18.48;27.58
37710;BME280;60223;34.854;-92.408;2023-03-20T00:28:36;101897.49;;;18.33;27.65
37710;BME280;60223;34.854;-92.408;2023-03-20T00:30:56;101900.82;;;17.62;28.58
37710;BME280;60223;34.854;-92.408;2023-03-20T00:33:22;101899.53;;;17.83;28.55
37710;BME280;60223;34.854;-92.408;2023-03-20T00:35:48;101899.70;;;18.00;28.18
37710;BME280;60223;34.854;-92.408;2023-03-20T00:38:14;101903.18;;;18.01;28.19
37710;BME280;60223;34.854;-92.408;2023-03-20T00:40:38;101905.69;;;18.00;28.31
37710;BME280;60223;34.854;-92.408;2023-03-20T00:43:08;101906.53;;;17.91;28.39
37710;BME280;60223;34.854;-92.408;2023-03-20T00:45:32;101907.62;;;18.25;28.31
37710;BME280;60223;34.854;-92.408;2023-03-20T00:47:56;101904.96;;;17.88;28.43
37710;BME280;60223;34.854;-92.408;2023-03-20T00:50:27;101902.37;;;18.05;28.39
37710;BME280;60223;34.854;-92.408;2023-03-20T00:52:49;101905.56;;;18.05;28.68
37710;BME280;60223;34.854;-92.408;2023-03-20T00:55:15;101899.86;;;18.57;28.18
37710;BME280;60223;34.854;-92.408;2023-03-20T00:57:43;101900.99;;;18.57;28.22
37710;BME280;60223;34.854;-92.408;2023-03-20T01:00:12;101901.32;;;18.01;27.94
37710;BME280;60223;34.854;-92.408;2023-03-20T01:02:32;101902.38;;;17.52;28.91
37710;BME280;60223;34.854;-92.408;2023-03-20T01:04:57;101906.44;;;17.73;28.71
37710;BME280;60223;34.854;-92.408;2023-03-20T01:07:24;101907.59;;;17.70;28.49
37710;BME280;60223;34.854;-92.408;2023-03-20T01:09:49;101910.71;;;17.84;28.39
37710;BME280;60223;34.854;-92.408;2023-03-20T01:12:14;101911.32;;;17.61;29.10
37710;BME280;60223;34.854;-92.408;2023-03-20T01:14:41;101913.35;;;17.45;29.15
37710;BME280;60223;34.854;-92.408;2023-03-20T01:17:08;101913.77;;;17.31;28.99
37710;BME280;60223;34.854;-92.408;2023-03-20T01:19:32;101914.30;;;17.53;28.90
37710;BME280;60223;34.854;-92.408;2023-03-20T01:21:56;101912.25;;;18.36;28.50
37710;BME280;60223;34.854;-92.408;2023-03-20T01:24:24;101912.59;;;18.31;28.50
37710;BME280;60223;34.854;-92.408;2023-03-20T01:26:48;101914.56;;;18.40;28.15
37710;BME280;60223;34.854;-92.408;2023-03-20T01:29:18;101915.99;;;17.45;28.94
37710;BME280;60223;34.854;-92.408;2023-03-20T01:31:42;101921.05;;;17.64;28.90
37710;BME280;60223;34.854;-92.408;2023-03-20T01:34:07;101925.94;;;17.37;28.79
37710;BME280;60223;34.854;-92.408;2023-03-20T01:36:33;101930.81;;;17.81;28.82
37710;BME280;60223;34.854;-92.408;2023-03-20T01:39:00;101932.26;;;17.64;28.99
37710;BME280;60223;34.854;-92.408;2023-03-20T01:41:26;101934.02;;;17.40;29.10
37710;BME280;60223;34.854;-92.408;2023-03-20T01:43:50;101932.77;;;17.63;29.03
37710;BME280;60223;34.854;-92.408;2023-03-20T01:46:23;101926.54;;;17.62;29.14
37710;BME280;60223;34.854;-92.408;2023-03-20T01:48:55;101928.49;;;17.87;28.67
37710;BME280;60223;34.854;-92.408;2023-03-20T01:51:07;101927.58;;;18.00;28.63
37710;BME280;60223;34.854;-92.408;2023-03-20T01:53:33;101929.82;;;17.72;28.46
37710;BME280;60223;34.854;-92.408;2023-03-20T01:56:00;101929.99;;;17.20;29.59
37710;BME280;60223;34.854;-92.408;2023-03-20T01:58:25;101931.36;;;17.50;29.21
37710;BME280;60223;34.854;-92.408;2023-03-20T02:00:50;101929.32;;;17.56;29.07
37710;BME280;60223;34.854;-92.408;2023-03-20T02:03:14;101929.13;;;17.79;28.91
37710;BME280;60223;34.854;-92.408;2023-03-20T02:05:42;101929.87;;;17.60;29.01
37710;BME280;60223;34.854;-92.408;2023-03-20T02:08:21;101927.85;;;17.47;29.21
37710;BME280;60223;34.854;-92.408;2023-03-20T02:10:33;101930.62;;;17.37;29.45
37710;BME280;60223;34.854;-92.408;2023-03-20T02:12:57;101928.71;;;17.38;29.38
37710;BME280;60223;34.854;-92.408;2023-03-20T02:15:29;101928.43;;;17.86;28.95
37710;BME280;60223;34.854;-92.408;2023-03-20T02:17:49;101930.25;;;18.02;28.53
37710;BME280;60223;34.854;-92.408;2023-03-20T02:20:32;101936.30;;;17.48;28.90
37710;BME280;60223;34.854;-92.408;2023-03-20T02:22:53;101945.80;;;17.29;29.21
37710;BME280;60223;34.854;-92.408;2023-03-20T02:27:38;101949.49;;;17.37;29.26
37710;BME280;60223;34.854;-92.408;2023-03-20T02:39:50;101956.27;;;17.27;29.61
37710;BME280;60223;34.854;-92.408;2023-03-20T02:42:13;101960.26;;;17.70;29.01
37710;BME280;60223;34.854;-92.408;2023-03-20T02:44:39;101960.25;;;17.63;29.00
37710;BME280;60223;34.854;-92.408;2023-03-20T02:47:01;101958.29;;;17.46;28.54
37710;BME280;60223;34.854;-92.408;2023-03-20T02:49:32;101953.51;;;16.89;29.48
37710;BME280;60223;34.854;-92.408;2023-03-20T02:51:54;101947.85;;;17.15;29.24
37710;BME280;60223;34.854;-92.408;2023-03-20T02:54:23;101941.52;;;17.28;29.22
37710;BME280;60223;34.854;-92.408;2023-03-20T02:56:50;101941.80;;;16.92;29.38
37710;BME280;60223;34.854;-92.408;2023-03-20T02:59:15;101942.92;;;17.06;29.34
37710;BME280;60223;34.854;-92.408;2023-03-20T03:01:35;101944.38;;;17.24;29.23
37710;BME280;60223;34.854;-92.408;2023-03-20T03:04:02;101943.10;;;17.08;29.58
37710;BME280;60223;34.854;-92.408;2023-03-20T03:06:29;101945.26;;;17.35;29.37
37710;BME280;60223;34.854;-92.408;2023-03-20T03:08:56;101947.38;;;16.58;29.94
37710;BME280;60223;34.854;-92.408;2023-03-20T03:11:17;101952.02;;;16.44;30.02
37710;BME280;60223;34.854;-92.408;2023-03-20T03:13:46;101959.03;;;16.90;30.02
37710;BME280;60223;34.854;-92.408;2023-03-20T03:16:09;101960.46;;;16.71;29.98
37710;BME280;60223;34.854;-92.408;2023-03-20T03:18:36;101962.28;;;16.65;30.14
37710;BME280;60223;34.854;-92.408;2023-03-20T03:21:02;101964.52;;;17.05;29.93
37710;BME280;60223;34.854;-92.408;2023-03-20T03:23:27;101966.12;;;17.20;29.50
37710;BME280;60223;34.854;-92.408;2023-03-20T03:25:53;101965.92;;;17.16;28.98
37710;BME280;60223;34.854;-92.408;2023-03-20T03:28:25;101969.71;;;16.68;29.35
37710;BME280;60223;34.854;-92.408;2023-03-20T03:30:43;101978.10;;;16.94;29.85
37710;BME280;60223;34.854;-92.408;2023-03-20T03:33:17;101983.56;;;16.94;29.62
37710;BME280;60223;34.854;-92.408;2023-03-20T03:35:35;101985.76;;;17.09;29.60
37710;BME280;60223;34.854;-92.408;2023-03-20T03:38:00;101984.00;;;17.24;29.40
37710;BME280;60223;34.854;-92.408;2023-03-20T03:40:31;101977.07;;;16.73;29.66
37710;BME280;60223;34.854;-92.408;2023-03-20T03:42:56;101975.88;;;16.90;29.68
37710;BME280;60223;34.854;-92.408;2023-03-20T03:45:21;101977.91;;;16.86;29.71
37710;BME280;60223;34.854;-92.408;2023-03-20T03:47:48;101980.77;;;16.86;29.74
37710;BME280;60223;34.854;-92.408;2023-03-20T03:50:13;101983.88;;;16.83;29.77
37710;BME280;60223;34.854;-92.408;2023-03-20T03:52:37;101984.91;;;16.72;29.93
37710;BME280;60223;34.854;-92.408;2023-03-20T03:55:03;101984.07;;;16.58;30.04
37710;BME280;60223;34.854;-92.408;2023-03-20T03:57:31;101987.59;;;16.55;30.02
37710;BME280;60223;34.854;-92.408;2023-03-20T03:59:53;101987.03;;;16.62;29.88
37710;BME280;60223;34.854;-92.408;2023-03-20T04:02:20;101989.86;;;16.47;29.93
37710;BME280;60223;34.854;-92.408;2023-03-20T04:04:46;101990.57;;;16.41;29.90
37710;BME280;60223;34.854;-92.408;2023-03-20T04:07:12;101988.18;;;16.38;30.16
37710;BME280;60223;34.854;-92.408;2023-03-20T04:09:36;101983.77;;;16.68;29.99
37710;BME280;60223;34.854;-92.408;2023-03-20T04:12:02;101984.65;;;16.59;30.04
37710;BME280;60223;34.854;-92.408;2023-03-20T04:14:28;101985.09;;;16.17;30.25
37710;BME280;60223;34.854;-92.408;2023-03-20T04:16:54;101987.65;;;16.23;30.20
37710;BME280;60223;34.854;-92.408;2023-03-20T04:19:19;101981.64;;;16.16;30.25
37710;BME280;60223;34.854;-92.408;2023-03-20T04:21:45;101984.34;;;16.28;30.04
37710;BME280;60223;34.854;-92.408;2023-03-20T04:24:09;101984.07;;;16.28;30.09
37710;BME280;60223;34.854;-92.408;2023-03-20T04:26:37;101984.14;;;16.60;30.00
37710;BME280;60223;34.854;-92.408;2023-03-20T04:29:03;101978.85;;;16.46;30.15
37710;BME280;60223;34.854;-92.408;2023-03-20T04:31:28;101974.35;;;16.52;29.99
37710;BME280;60223;34.854;-92.408;2023-03-20T04:33:55;101972.94;;;16.38;30.11
37710;BME280;60223;34.854;-92.408;2023-03-20T04:36:21;101969.47;;;15.94;30.12
37710;BME280;60223;34.854;-92.408;2023-03-20T04:38:44;101967.55;;;16.29;30.11
37710;BME280;60223;34.854;-92.408;2023-03-20T04:41:12;101966.77;;;16.36;30.06
37710;BME280;60223;34.854;-92.408;2023-03-20T04:43:38;101970.65;;;16.26;30.08
37710;BME280;60223;34.854;-92.408;2023-03-20T04:46:00;101971.99;;;16.40;29.92
37710;BME280;60223;34.854;-92.408;2023-03-20T04:48:27;101970.18;;;16.02;30.34
37710;BME280;60223;34.854;-92.408;2023-03-20T04:50:55;101970.62;;;16.15;30.34
37710;BME280;60223;34.854;-92.408;2023-03-20T04:53:21;101971.71;;;16.37;30.09
37710;BME280;60223;34.854;-92.408;2023-03-20T04:55:47;101967.34;;;16.33;30.15
37710;BME280;60223;34.854;-92.408;2023-03-20T04:58:13;101966.75;;;16.01;30.22
37710;BME280;60223;34.854;-92.408;2023-03-20T05:00:37;101964.02;;;16.13;30.09
37710;BME280;60223;34.854;-92.408;2023-03-20T05:03:01;101962.67;;;16.20;30.17
37710;BME280;60223;34.854;-92.408;2023-03-20T05:05:30;101961.31;;;16.05;30.13
37710;BME280;60223;34.854;-92.408;2023-03-20T05:07:56;101954.74;;;16.11;30.22
37710;BME280;60223;34.854;-92.408;2023-03-20T05:10:21;101954.70;;;15.79;30.06
37710;BME280;60223;34.854;-92.408;2023-03-20T05:12:48;101953.86;;;15.93;30.22
37710;BME280;60223;34.854;-92.408;2023-03-20T05:15:14;101950.53;;;15.88;30.09
37710;BME280;60223;34.854;-92.408;2023-03-20T05:17:39;101949.11;;;15.65;30.30
37710;BME280;60223;34.854;-92.408;2023-03-20T05:20:05;101948.48;;;15.93;30.27
37710;BME280;60223;34.854;-92.408;2023-03-20T05:22:31;101949.40;;;15.67;30.24
37710;BME280;60223;34.854;-92.408;2023-03-20T05:24:57;101947.83;;;15.73;30.22
37710;BME280;60223;34.854;-92.408;2023-03-20T05:27:23;101942.95;;;15.86;30.29
37710;BME280;60223;34.854;-92.408;2023-03-20T05:29:49;101941.52;;;15.83;30.25
37710;BME280;60223;34.854;-92.408;2023-03-20T05:32:13;101945.04;;;15.57;30.25
37710;BME280;60223;34.854;-92.408;2023-03-20T05:34:40;101947.36;;;15.65;30.38
37710;BME280;60223;34.854;-92.408;2023-03-20T05:37:06;101947.82;;;15.66;30.28
37710;BME280;60223;34.854;-92.408;2023-03-20T05:39:32;101947.19;;;15.82;30.22
37710;BME280;60223;34.854;-92.408;2023-03-20T05:41:58;101949.21;;;15.61;30.34
37710;BME280;60223;34.854;-92.408;2023-03-20T05:44:22;101947.71;;;15.74;30.34
37710;BME280;60223;34.854;-92.408;2023-03-20T05:46:49;101945.56;;;15.50;30.29
37710;BME280;60223;34.854;-92.408;2023-03-20T05:49:15;101938.72;;;15.76;30.25
37710;BME280;60223;34.854;-92.408;2023-03-20T05:51:38;101943.74;;;15.55;30.47
37710;BME280;60223;34.854;-92.408;2023-03-20T05:54:05;101945.63;;;15.38;30.48
37710;BME280;60223;34.854;-92.408;2023-03-20T05:56:32;101952.09;;;15.37;30.27
37710;BME280;60223;34.854;-92.408;2023-03-20T05:58:58;101952.42;;;15.64;30.46
37710;BME280;60223;34.854;-92.408;2023-03-20T06:01:25;101946.75;;;15.36;30.39
37710;BME280;60223;34.854;-92.408;2023-03-20T06:03:50;101943.82;;;15.45;30.44
37710;BME280;60223;34.854;-92.408;2023-03-20T06:06:16;101948.42;;;15.33;30.27
37710;BME280;60223;34.854;-92.408;2023-03-20T06:08:42;101946.91;;;15.59;30.28
37710;BME280;60223;34.854;-92.408;2023-03-20T06:11:08;101939.44;;;15.40;30.28
37710;BME280;60223;34.854;-92.408;2023-03-20T06:13:34;101941.60;;;15.35;30.41
37710;BME280;60223;34.854;-92.408;2023-03-20T06:15:58;101942.15;;;15.02;30.58
37710;BME280;60223;34.854;-92.408;2023-03-20T06:18:26;101938.85;;;15.59;30.16
37710;BME280;60223;34.854;-92.408;2023-03-20T06:20:55;101937.78;;;15.77;30.03
37710;BME280;60223;34.854;-92.408;2023-03-20T06:23:17;101935.95;;;15.14;30.39
37710;BME280;60223;34.854;-92.408;2023-03-20T06:25:43;101931.06;;;15.41;30.32
37710;BME280;60223;34.854;-92.408;2023-03-20T06:28:09;101932.28;;;15.33;30.47
37710;BME280;60223;34.854;-92.408;2023-03-20T06:30:35;101931.91;;;15.09;30.39
37710;BME280;60223;34.854;-92.408;2023-03-20T06:33:01;101934.08;;;15.35;30.54
37710;BME280;60223;34.854;-92.408;2023-03-20T06:35:25;101935.20;;;15.55;30.34
37710;BME280;60223;34.854;-92.408;2023-03-20T06:37:50;101933.37;;;15.48;30.54
37710;BME280;60223;34.854;-92.408;2023-03-20T06:40:18;101932.59;;;15.11;30.32
37710;BME280;60223;34.854;-92.408;2023-03-20T06:42:44;101930.11;;;15.29;30.30
37710;BME280;60223;34.854;-92.408;2023-03-20T06:45:10;101925.71;;;14.97;30.35
37710;BME280;60223;34.854;-92.408;2023-03-20T06:47:35;101926.96;;;15.18;30.39
37710;BME280;60223;34.854;-92.408;2023-03-20T06:50:01;101922.74;;;14.92;30.35
37710;BME280;60223;34.854;-92.408;2023-03-20T06:52:27;101918.95;;;15.02;30.50
37710;BME280;60223;34.854;-92.408;2023-03-20T06:54:53;101917.30;;;15.09;30.29
37710;BME280;60223;34.854;-92.408;2023-03-20T06:57:19;101921.89;;;15.29;30.31
37710;BME280;60223;34.854;-92.408;2023-03-20T06:59:45;101921.14;;;14.99;30.40
37710;BME280;60223;34.854;-92.408;2023-03-20T07:02:12;101919.22;;;14.81;30.41
37710;BME280;60223;34.854;-92.408;2023-03-20T07:04:37;101915.03;;;14.80;30.52
37710;BME280;60223;34.854;-92.408;2023-03-20T07:07:02;101913.82;;;15.23;30.30
37710;BME280;60223;34.854;-92.408;2023-03-20T07:11:54;101911.31;;;15.14;30.43
37710;BME280;60223;34.854;-92.408;2023-03-20T07:14:18;101909.07;;;15.12;30.47
37710;BME280;60223;34.854;-92.408;2023-03-20T07:16:44;101905.39;;;14.90;30.49
37710;BME280;60223;34.854;-92.408;2023-03-20T07:19:12;101903.38;;;15.03;30.30
37710;BME280;60223;34.854;-92.408;2023-03-20T07:21:37;101900.75;;;14.76;30.26
37710;BME280;60223;34.854;-92.408;2023-03-20T07:24:03;101893.90;;;14.78;30.52
37710;BME280;60223;34.854;-92.408;2023-03-20T07:26:29;101888.20;;;14.77;30.31
37710;BME280;60223;34.854;-92.408;2023-03-20T07:28:54;101883.51;;;14.63;30.36
37710;BME280;60223;34.854;-92.408;2023-03-20T07:31:21;101882.02;;;14.64;30.30
37710;BME280;60223;34.854;-92.408;2023-03-20T07:33:46;101879.91;;;14.59;30.31
37710;BME280;60223;34.854;-92.408;2023-03-20T07:36:13;101879.40;;;14.94;30.16
37710;BME280;60223;34.854;-92.408;2023-03-20T07:38:36;101877.83;;;15.21;29.90
37710;BME280;60223;34.854;-92.408;2023-03-20T07:41:04;101878.20;;;15.05;30.26
37710;BME280;60223;34.854;-92.408;2023-03-20T07:43:30;101877.92;;;14.74;30.19
37710;BME280;60223;34.854;-92.408;2023-03-20T07:45:56;101871.60;;;14.81;30.05
37710;BME280;60223;34.854;-92.408;2023-03-20T07:48:20;101868.51;;;14.69;30.18
37710;BME280;60223;34.854;-92.408;2023-03-20T07:50:46;101868.42;;;14.87;30.09
37710;BME280;60223;34.854;-92.408;2023-03-20T07:53:12;101868.28;;;14.84;30.18
37710;BME280;60223;34.854;-92.408;2023-03-20T07:55:38;101861.19;;;14.63;30.17
37710;BME280;60223;34.854;-92.408;2023-03-20T07:58:04;101859.70;;;14.88;30.13
37710;BME280;60223;34.854;-92.408;2023-03-20T08:00:27;101854.48;;;15.03;30.15
37710;BME280;60223;34.854;-92.408;2023-03-20T08:02:54;101850.53;;;15.04;30.01
37710;BME280;60223;34.854;-92.408;2023-03-20T08:05:21;101851.21;;;14.49;30.00
37710;BME280;60223;34.854;-92.408;2023-03-20T08:07:46;101848.78;;;14.78;30.00
37710;BME280;60223;34.854;-92.408;2023-03-20T08:10:11;101842.06;;;14.77;30.00
37710;BME280;60223;34.854;-92.408;2023-03-20T08:12:36;101838.14;;;14.47;30.01
37710;BME280;60223;34.854;-92.408;2023-03-20T08:15:02;101834.00;;;14.80;30.23
37710;BME280;60223;34.854;-92.408;2023-03-20T08:17:27;101828.88;;;14.31;30.14
37710;BME280;60223;34.854;-92.408;2023-03-20T08:19:52;101826.95;;;14.56;30.11
37710;BME280;60223;34.854;-92.408;2023-03-20T08:22:17;101825.69;;;14.24;30.19
37710;BME280;60223;34.854;-92.408;2023-03-20T08:24:42;101821.76;;;14.46;29.98
37710;BME280;60223;34.854;-92.408;2023-03-20T08:27:08;101817.06;;;14.67;29.95
37710;BME280;60223;34.854;-92.408;2023-03-20T08:29:32;101816.87;;;14.52;30.08
37710;BME280;60223;34.854;-92.408;2023-03-20T08:31:57;101813.21;;;14.17;29.97
37710;BME280;60223;34.854;-92.408;2023-03-20T08:34:23;101806.95;;;14.03;29.81
37710;BME280;60223;34.854;-92.408;2023-03-20T08:36:47;101805.59;;;14.50;30.00
37710;BME280;60223;34.854;-92.408;2023-03-20T08:39:10;101800.59;;;14.42;30.27
37710;BME280;60223;34.854;-92.408;2023-03-20T08:41:39;101797.35;;;14.56;29.94
37710;BME280;60223;34.854;-92.408;2023-03-20T08:44:02;101794.29;;;14.32;30.51
37710;BME280;60223;34.854;-92.408;2023-03-20T08:46:28;101793.28;;;14.73;30.16
37710;BME280;60223;34.854;-92.408;2023-03-20T08:48:52;101789.73;;;14.43;30.00
37710;BME280;60223;34.854;-92.408;2023-03-20T08:51:18;101785.79;;;14.63;29.95
37710;BME280;60223;34.854;-92.408;2023-03-20T08:53:43;101788.33;;;14.71;30.19
37710;BME280;60223;34.854;-92.408;2023-03-20T08:56:08;101786.98;;;14.77;29.78
37710;BME280;60223;34.854;-92.408;2023-03-20T08:58:32;101783.24;;;14.16;29.98
37710;BME280;60223;34.854;-92.408;2023-03-20T09:01:02;101783.95;;;14.68;29.70
37710;BME280;60223;34.854;-92.408;2023-03-20T09:03:24;101772.84;;;14.73;29.57
37710;BME280;60223;34.854;-92.408;2023-03-20T09:05:49;101767.38;;;14.32;29.93
37710;BME280;60223;34.854;-92.408;2023-03-20T09:08:13;101768.64;;;14.30;29.80
37710;BME280;60223;34.854;-92.408;2023-03-20T09:10:38;101769.61;;;14.25;29.81
37710;BME280;60223;34.854;-92.408;2023-03-20T09:13:03;101771.21;;;14.28;29.98
37710;BME280;60223;34.854;-92.408;2023-03-20T09:15:28;101770.43;;;14.54;29.68
37710;BME280;60223;34.854;-92.408;2023-03-20T09:17:53;101769.38;;;14.49;29.82
37710;BME280;60223;34.854;-92.408;2023-03-20T09:20:18;101766.51;;;14.16;29.75
37710;BME280;60223;34.854;-92.408;2023-03-20T09:22:43;101764.24;;;14.99;29.56
37710;BME280;60223;34.854;-92.408;2023-03-20T09:25:08;101763.58;;;14.25;29.66
37710;BME280;60223;34.854;-92.408;2023-03-20T09:27:32;101763.25;;;14.29;29.67
37710;BME280;60223;34.854;-92.408;2023-03-20T09:29:58;101758.47;;;14.37;29.47
37710;BME280;60223;34.854;-92.408;2023-03-20T09:32:23;101755.95;;;14.09;29.47
37710;BME280;60223;34.854;-92.408;2023-03-20T09:34:48;101757.68;;;14.25;29.80
37710;BME280;60223;34.854;-92.408;2023-03-20T09:37:13;101757.32;;;14.09;29.81
37710;BME280;60223;34.854;-92.408;2023-03-20T09:39:38;101755.20;;;14.10;29.63
37710;BME280;60223;34.854;-92.408;2023-03-20T09:42:07;101753.85;;;13.82;29.52
37710;BME280;60223;34.854;-92.408;2023-03-20T09:44:37;101753.00;;;13.88;30.38
37710;BME280;60223;34.854;-92.408;2023-03-20T09:47:00;101749.61;;;13.85;29.30
37710;BME280;60223;34.854;-92.408;2023-03-20T09:49:25;101743.72;;;13.52;29.61
37710;BME280;60223;34.854;-92.408;2023-03-20T09:51:47;101739.82;;;13.13;29.57
37710;BME280;60223;34.854;-92.408;2023-03-20T09:54:10;101743.64;;;13.69;29.60
37710;BME280;60223;34.854;-92.408;2023-03-20T09:56:33;101745.45;;;13.57;29.69
37710;BME280;60223;34.854;-92.408;2023-03-20T09:59:00;101750.19;;;12.96;30.80
37710;BME280;60223;34.854;-92.408;2023-03-20T10:01:25;101753.07;;;13.41;30.43
37710;BME280;60223;34.854;-92.408;2023-03-20T10:03:54;101757.40;;;13.64;29.64
37710;BME280;60223;34.854;-92.408;2023-03-20T10:06:15;101758.97;;;13.73;29.79
37710;BME280;60223;34.854;-92.408;2023-03-20T10:08:37;101765.33;;;13.59;29.56
37710;BME280;60223;34.854;-92.408;2023-03-20T10:11:17;101763.59;;;13.69;29.36
37710;BME280;60223;34.854;-92.408;2023-03-20T10:13:39;101775.85;;;14.44;29.10
37710;BME280;60223;34.854;-92.408;2023-03-20T10:15:59;101784.80;;;14.47;28.92
37710;BME280;60223;34.854;-92.408;2023-03-20T10:18:21;101785.00;;;13.98;28.97
37710;BME280;60223;34.854;-92.408;2023-03-20T10:20:47;101786.29;;;14.48;29.45
37710;BME280;60223;34.854;-92.408;2023-03-20T10:23:12;101789.67;;;14.56;29.04
37710;BME280;60223;34.854;-92.408;2023-03-20T10:25:35;101787.97;;;14.35;29.11
37710;BME280;60223;34.854;-92.408;2023-03-20T10:27:59;101784.70;;;14.44;28.82
37710;BME280;60223;34.854;-92.408;2023-03-20T10:30:32;101778.41;;;14.57;28.72
37710;BME280;60223;34.854;-92.408;2023-03-20T10:32:53;101776.64;;;14.95;28.55
37710;BME280;60223;34.854;-92.408;2023-03-20T10:35:22;101771.83;;;15.11;28.36
37710;BME280;60223;34.854;-92.408;2023-03-20T10:37:46;101770.44;;;15.14;28.16
37710;BME280;60223;34.854;-92.408;2023-03-20T10:42:36;101757.38;;;15.60;27.86
37710;BME280;60223;34.854;-92.408;2023-03-20T10:45:01;101753.05;;;15.43;28.36
37710;BME280;60223;34.854;-92.408;2023-03-20T10:47:27;101754.35;;;15.64;28.05
37710;BME280;60223;34.854;-92.408;2023-03-20T10:49:52;101754.90;;;15.73;27.67
37710;BME280;60223;34.854;-92.408;2023-03-20T10:52:20;101755.42;;;15.65;27.74
37710;BME280;60223;34.854;-92.408;2023-03-20T10:54:44;101750.81;;;16.19;27.61
37710;BME280;60223;34.854;-92.408;2023-03-20T10:57:12;101743.99;;;16.07;27.69
37710;BME280;60223;34.854;-92.408;2023-03-20T10:59:39;101747.53;;;16.38;27.42
37710;BME280;60223;34.854;-92.408;2023-03-20T11:01:58;101746.30;;;16.23;27.36
37710;BME280;60223;34.854;-92.408;2023-03-20T11:04:26;101746.51;;;16.59;27.28
37710;BME280;60223;34.854;-92.408;2023-03-20T11:06:56;101751.24;;;16.76;27.05
37710;BME280;60223;34.854;-92.408;2023-03-20T11:09:22;101758.69;;;16.49;27.50
37710;BME280;60223;34.854;-92.408;2023-03-20T11:11:45;101759.05;;;16.74;26.77
37710;BME280;60223;34.854;-92.408;2023-03-20T11:14:15;101760.49;;;16.78;27.48
37710;BME280;60223;34.854;-92.408;2023-03-20T11:16:37;101759.78;;;17.22;26.91
37710;BME280;60223;34.854;-92.408;2023-03-20T11:19:06;101762.46;;;17.42;26.75
37710;BME280;60223;34.854;-92.408;2023-03-20T11:21:28;101758.96;;;16.78;26.46
37710;BME280;60223;34.854;-92.408;2023-03-20T11:23:53;101752.99;;;15.87;27.52
37710;BME280;60223;34.854;-92.408;2023-03-20T11:26:17;101748.80;;;15.69;27.60
37710;BME280;60223;34.854;-92.408;2023-03-20T11:28:46;101746.84;;;16.08;27.17
37710;BME280;60223;34.854;-92.408;2023-03-20T11:31:16;101747.42;;;15.47;28.32
37710;BME280;60223;34.854;-92.408;2023-03-20T11:33:40;101752.13;;;16.08;27.84
37710;BME280;60223;34.854;-92.408;2023-03-20T11:36:04;101753.46;;;16.77;27.68
37710;BME280;60223;34.854;-92.408;2023-03-20T11:38:28;101750.77;;;15.91;27.32
37710;BME280;60223;34.854;-92.408;2023-03-20T11:40:54;101753.51;;;15.46;27.77
37710;BME280;60223;34.854;-92.408;2023-03-20T11:43:23;101760.46;;;15.88;27.36
37710;BME280;60223;34.854;-92.408;2023-03-20T11:45:46;101759.20;;;15.70;27.14
37710;BME280;60223;34.854;-92.408;2023-03-20T11:48:14;101765.39;;;15.24;28.50
37710;BME280;60223;34.854;-92.408;2023-03-20T11:50:41;101772.89;;;16.02;27.97
37710;BME280;60223;34.854;-92.408;2023-03-20T11:53:02;101774.06;;;16.08;27.75
37710;BME280;60223;34.854;-92.408;2023-03-20T11:55:31;101776.82;;;16.01;27.36
37710;BME280;60223;34.854;-92.408;2023-03-20T11:57:59;101777.50;;;15.21;27.97
37710;BME280;60223;34.854;-92.408;2023-03-20T12:00:21;101778.65;;;15.60;27.53
37710;BME280;60223;34.854;-92.408;2023-03-20T12:02:45;101778.51;;;15.47;27.11
37710;BME280;60223;34.854;-92.408;2023-03-20T12:05:19;101777.47;;;15.91;27.41
37710;BME280;60223;34.854;-92.408;2023-03-20T12:07:39;101781.08;;;15.18;27.25
37710;BME280;60223;34.854;-92.408;2023-03-20T12:10:06;101794.76;;;16.25;27.53
37710;BME280;60223;34.854;-92.408;2023-03-20T12:12:36;101796.04;;;16.20;27.48
37710;BME280;60223;34.854;-92.408;2023-03-20T12:14:59;101799.49;;;16.20;28.12
37710;BME280;60223;34.854;-92.408;2023-03-20T12:17:31;101795.36;;;16.40;28.17
37710;BME280;60223;34.854;-92.408;2023-03-20T12:19:47;101798.74;;;15.78;27.82
37710;BME280;60223;34.854;-92.408;2023-03-20T12:22:20;101797.97;;;15.38;27.90
37710;BME280;60223;34.854;-92.408;2023-03-20T12:24:42;101798.94;;;15.57;27.62
37710;BME280;60223;34.854;-92.408;2023-03-20T12:27:14;101802.76;;;16.09;27.16
37710;BME280;60223;34.854;-92.408;2023-03-20T12:29:34;101806.61;;;15.66;27.54
37710;BME280;60223;34.854;-92.408;2023-03-20T12:31:59;101815.08;;;15.93;28.36
37710;BME280;60223;34.854;-92.408;2023-03-20T12:34:24;101817.99;;;16.34;27.64
37710;BME280;60223;34.854;-92.408;2023-03-20T12:36:49;101820.38;;;16.70;27.72
37710;BME280;60223;34.854;-92.408;2023-03-20T12:39:16;101828.11;;;16.41;28.13